AirNav   Air Wisconsin Up To $57,000 Bonus
 
 889 users online  

KTZV Tompkinsville/Monroe County Airport
Tompkinsville, Kentucky, USA

GOING TO TOMPKINSVILLE?


FAA INFORMATION EFFECTIVE 26 JANUARY 2023

Location

FAA Identifier: TZV
Lat/Long: 36-43-44.5000N 085-39-08.6000W
36-43.741667N 085-39.143333W
36.7290278,-85.6523889
(estimated)
Elevation: 1036.2 ft. / 315.8 m (surveyed)
Variation: 04W (2010)
From city: 2 miles NE of TOMPKINSVILLE, KY
Time zone: UTC -6 (UTC -5 during Daylight Saving Time)
Zip code: 42167

Airport Operations

Airport use: Open to the public
Activation date: 11/1988
Control tower: no
ARTCC: MEMPHIS CENTER
FSS: LOUISVILLE FLIGHT SERVICE STATION
NOTAMs facility: LOU (NOTAM-D service available)
Attendance: UNATNDD
Wind indicator: lighted
Segmented circle: no
Lights: ACTVT REIL RWY 04 & 22; PAPI RWY 04 & 22; MIRL RWY 04/22 - CTAF.
Beacon: white-green (lighted land airport)
Operates sunset to sunrise.

Airport Communications

CTAF/UNICOM: 123.05
WX AWOS-AV: 124.175
  • APCH/DEP SVC PRVDD BY MEMPHIS ARTCC ON FREQS 132.9/290.3 (NASHVILLE/JOELTON RCAG).

Nearby radio navigation aids

VOR radial/distance  VOR name  Freq  Var
LVTr292/24.9LIVINGSTON VOR/DME114.3502W

Airport Services

Fuel available: 100LL
Parking: hangars and tiedowns
Airframe service: MAJOR
Powerplant service: MAJOR

Runway Information

Runway 4/22

Dimensions: 4000 x 75 ft. / 1219 x 23 m
Surface: asphalt, in good condition
Weight bearing capacity: 
Single wheel: 12.0
Runway edge lights: medium intensity
Runway edge markings: ALGAE COVERED.
RUNWAY 4  RUNWAY 22
Latitude: 36-43.470603N36-44.014112N
Longitude: 085-39.374307W085-38.911070W
Elevation: 1015.3 ft.1036.2 ft.
Traffic pattern: leftleft
Runway heading: 038 magnetic, 034 true218 magnetic, 214 true
Markings: nonprecision, in fair conditionnonprecision, in fair condition
Visual slope indicator: 2-light PAPI on left (3.75 degrees glide path)2-light PAPI on left (3.00 degrees glide path)
Runway end identifier lights: yesyes
Touchdown point: yes, no lightsyes, no lights
Obstructions: 116 ft. trees, 2200 ft. from runway, 558 ft. left of centerline, 17:1 slope to clear41 ft. trees, 692 ft. from runway, 274 ft. left of centerline, 12:1 slope to clear

Airport Ownership and Management from official FAA records

Ownership: Publicly-owned
Owner: TOMPKINSVILLE-MONROE CO APT
P.O. BOX 175
TOMPKINSVILLE, KY 42167
Phone 270-487-0678
Manager: KANEIA COPASS
PO BOX 175
TOMPKINSVILLE, KY 42167
Phone 270-646-0544
214-458-0600

Airport Operational Statistics

Aircraft based on the field: 39
Single engine airplanes: 31
Multi engine airplanes: 8
    
Aircraft operations: avg 31/day *
76% local general aviation
14% transient general aviation
7% air taxi
3% military
* for 12-month period ending 04 April 2018

Additional Remarks

USE CTAF FOR TRML ACES.
FOR CD CTC MEMPHIS ARTCC AT 901-368-8453/8449.

Instrument Procedures

NOTE: All procedures below are presented as PDF files. If you need a reader for these files, you should download the free Adobe Reader.

NOT FOR NAVIGATION. Please procure official charts for flight.
FAA instrument procedures published for use from 26 January 2023 at 0901Z to 23 February 2023 at 0900z.

 
IAPs - Instrument Approach Procedures
RNAV (GPS) RWY 04   download
RNAV (GPS) RWY 22   download
NOTE: Special Take-Off Minimums/Departure Procedures apply   download (363KB)

Other nearby airports with instrument procedures:

3M7 - Lafayette Municipal Airport (23 nm SW)
KGLW - Glasgow Municipal Airport (23 nm NW)
8A3 - Livingston Municipal Airport (25 nm SE)
K24 - Russell County Airport (31 nm NE)
KEKQ - Wayne County Airport (39 nm E)
 
Loc | Ops | Rwys | IFR | FBO | Links
Com | Nav | Svcs | Stats | Notes
Area around KTZV (Tompkinsville/Monroe County Airport)
 
Road maps at: MapQuest Bing Google
 
Aerial photo
WARNING: Photo may not be current or correct
Aerial photo of KTZV (Tompkinsville/Monroe County Airport)
Do you have a better or more recent aerial photo of Tompkinsville/Monroe County Airport that you would like to share? If so, please send us your photo.

 
Sectional chart

 
Airport distance calculator
Flying to Tompkinsville/Monroe County Airport? Find the distance to fly.

From to KTZV

Sunrise and sunset
Times for 27-Jan-2023
 Local
(UTC-6)
 Zulu
(UTC)
Morning civil twilight06:2212:22
Sunrise06:4912:49
Sunset17:0123:01
Evening civil twilight17:2923:29

Current date and time
Zulu (UTC)  28-Jan-2023 03:00:03
Local (UTC-6)  27-Jan-2023 21:00:03
 
METAR
KGLW 
23nm NW 
280235Z AUTO 20006KT 10SM CLR 07/M03 A3015 RMK AO2 T00701030
K8A3 
25nm SE 
280235Z AUTO 22015G21KT 10SM CLR 06/M03 A3018 RMK A01
KEKQ 
39nm E 
280156Z AUTO 21016G23KT 10SM CLR A3018 RMK AO2 SLPNO FZRANO $
KBWG 
39nm W 
280253Z AUTO 21007KT 10SM CLR 08/M04 A3016 RMK AO2 SLP215 T00831044 51019
K1M5 
41nm W 
280235Z AUTO 20009KT 10SM CLR 07/M04 A3015 RMK A01
KAAS 
41nm NE 
280235Z AUTO 23013KT 10SM CLR 06/M02 A3017 RMK AO1
KXNX 
42nm SW 
280235Z AUTO 19006KT 10SM CLR 08/M03 A3022 RMK A01
KM54 
45nm SW 
280230Z AUTO 20012G17KT 10SM FEW050 FEW055 FEW110 07/M02 A3018 RMK A01
TAF
NOTAMs
Click for the latest NOTAMs
NOTAMs are issued by the DoD/FAA and will open in a separate window not controlled by AirNav.

 

 
 

FBO, Fuel Providers, and Aircraft Ground Support

  
 Business Name 
 
 Contact 
 
 Services / Description 
 
Fuel Prices
 
Comments
  
Tompkinsville-Monroe County Airport 270-487-0678
no information available

If you are affiliated with Tompkinsville-Monroe County Airport and would like to show here your services, contact info, web link, logo, and more, click here
100LL
SS $5.70 
 Updated 19-Jan-2023
 
   2 read write
SS=Self service
Update Fuel Prices
 

Would you like to see your business listed on this page?

 If your business provides an interesting product or service to pilots, flight crews, aircraft, or users of the Tompkinsville/Monroe County Airport, you should consider listing it here.  To start the listing process, click on the button below
 
Add a business
 

Other Pages about Tompkinsville/Monroe County Airport

www.monroecountyky.com/tzv_airport.html
 
Update a link
 
Copyright © AirNav, LLC. All rights reserved. Privacy Policy  Contact